Time;durP1;ratioP1;P1;durP2;ratioP2;P2;SDS_P1;SDS_P2;PMS_P1;PMS_P2;Temp;Humidity;BMP_temperature;BMP_pressure;BME280_temperature;BME280_humidity;BME280_pressure;Samples;Min_cycle;Max_cycle;Signal;HPM_P1;HPM_P2
2022/09/27 01:42:24;;;;;;;1.67;0.80;;;;;;;12.73;65.10;98041.50;10508586;22;20028;-81
2022/09/27 01:47:38;;;;;;;0.82;0.70;;;;;;;12.68;64.93;98038.38;10533836;28;20102;-83
2022/09/27 01:53:17;;;;;;;1.23;0.60;;;;;;;12.70;64.93;98031.16;10531892;28;20040;-83
2022/09/27 01:58:47;;;;;;;2.17;0.80;;;;;;;12.77;64.00;98029.78;10534505;28;20451;-82
2022/09/27 02:03:52;;;;;;;1.08;0.75;;;;;;;12.81;63.66;98022.50;10535579;28;20093;-82
2022/09/27 02:09:23;;;;;;;1.60;0.75;;;;;;;12.80;64.02;98020.81;10528910;28;20098;-81
2022/09/27 02:14:41;;;;;;;1.20;0.70;;;;;;;12.69;65.44;98015.47;10517924;28;20107;-81
2022/09/27 02:20:05;;;;;;;1.42;0.90;;;;;;;12.69;65.68;98003.13;10537186;28;20387;-82
2022/09/27 02:25:40;;;;;;;2.40;1.02;;;;;;;12.68;66.19;97998.81;10532089;28;20070;-82
2022/09/27 02:30:42;;;;;;;1.08;0.90;;;;;;;12.62;66.88;97986.94;10531628;28;20051;-81
2022/09/27 02:35:55;;;;;;;1.88;1.25;;;;;;;12.62;68.15;97981.66;10517608;28;20547;-82
2022/09/27 02:40:57;;;;;;;1.67;1.38;;;;;;;12.63;68.41;97974.59;10531575;28;20048;-81
2022/09/27 02:46:13;;;;;;;2.08;1.70;;;;;;;12.63;68.44;97966.69;10532089;28;20052;-82
2022/09/27 02:51:40;;;;;;;2.63;1.40;;;;;;;12.58;69.01;97964.41;10532229;28;20047;-82
2022/09/27 02:56:53;;;;;;;3.33;1.73;;;;;;;12.61;68.45;97966.78;10531290;28;20062;-81
2022/09/27 03:02:48;;;;;;;2.75;1.75;;;;;;;12.58;68.54;97966.19;10495300;28;20086;-81
2022/09/27 03:08:02;;;;;;;1.63;1.30;;;;;;;12.50;70.45;97950.09;10551280;28;20147;-81
2022/09/27 03:13:05;;;;;;;3.00;1.52;;;;;;;12.28;72.57;97950.81;10532090;28;20044;-81
2022/09/27 03:18:07;;;;;;;2.30;1.40;;;;;;;12.27;74.84;97952.59;10531438;28;20044;-80
2022/09/27 03:23:27;;;;;;;2.10;1.90;;;;;;;12.12;78.67;97948.41;10534409;28;20517;-83
2022/09/27 03:28:29;;;;;;;3.45;2.40;;;;;;;12.20;79.35;97939.97;10531194;28;20135;-81
2022/09/27 03:33:32;;;;;;;3.53;3.22;;;;;;;12.05;81.67;97936.66;10515670;28;20064;-81
2022/09/27 03:38:39;;;;;;;3.88;3.58;;;;;;;11.88;84.85;97935.19;10533069;28;20101;-82
2022/09/27 03:43:44;;;;;;;3.90;3.60;;;;;;;11.66;88.09;97932.34;10516173;28;20104;-82
2022/09/27 03:48:46;;;;;;;4.75;4.35;;;;;;;11.46;91.47;97921.41;10515281;28;20058;-82
2022/09/27 03:53:49;;;;;;;8.75;5.28;;;;;;;11.28;95.92;97917.41;10528671;28;20461;-81
2022/09/27 03:58:51;;;;;;;5.80;5.40;;;;;;;11.25;97.59;97907.13;10511180;28;20051;-81
2022/09/27 04:03:53;;;;;;;6.20;5.80;;;;;;;11.27;98.24;97899.94;10528468;28;20071;-82
2022/09/27 04:09:03;;;;;;;6.07;5.57;;;;;;;11.23;100.00;97890.59;10527737;28;20528;-82
2022/09/27 04:14:24;;;;;;;6.60;6.07;;;;;;;11.31;100.00;97891.75;10528048;28;20052;-82
2022/09/27 04:19:46;;;;;;;5.22;4.82;;;;;;;11.46;97.97;97889.84;10545408;28;20496;-82
2022/09/27 04:24:47;;;;;;;4.90;4.50;;;;;;;11.32;99.50;97888.16;10541202;28;20046;-81
2022/09/27 04:30:00;;;;;;;4.82;4.45;;;;;;;11.26;100.00;97879.88;10537369;28;20066;-82
2022/09/27 04:41:00;;;;;;;5.07;4.68;;;;;;;11.20;100.00;97877.66;10546058;28;20044;-81
2022/09/27 04:46:06;;;;;;;5.72;5.15;;;;;;;11.10;100.00;97877.44;10542000;28;20048;-81
2022/09/27 04:51:09;;;;;;;6.07;5.57;;;;;;;11.07;100.00;97875.88;10540338;28;20048;-81
2022/09/27 04:56:11;;;;;;;6.35;5.85;;;;;;;11.08;100.00;97874.91;10540747;28;20055;-81
2022/09/27 05:01:13;;;;;;;6.25;5.70;;;;;;;11.10;100.00;97877.44;10560496;28;20040;-82
2022/09/27 05:06:35;;;;;;;6.40;5.88;;;;;;;10.97;100.00;97876.59;10569642;28;20070;-81
2022/09/27 05:11:51;;;;;;;6.53;6.03;;;;;;;10.92;100.00;97862.91;10545044;28;20064;-81
2022/09/27 05:16:56;;;;;;;7.57;6.55;;;;;;;10.99;100.00;97867.66;10540091;28;20067;-81
2022/09/27 05:22:21;;;;;;;6.50;6.00;;;;;;;11.13;100.00;97876.41;10523089;28;20062;-81
2022/09/27 05:27:25;;;;;;;6.32;5.93;;;;;;;10.95;100.00;97874.06;10535867;28;20509;-81
2022/09/27 05:32:28;;;;;;;7.05;6.55;;;;;;;10.88;100.00;97872.78;10556245;28;20056;-81
2022/09/27 05:37:54;;;;;;;8.80;8.07;;;;;;;10.96;100.00;97870.50;10527208;28;20113;-81
2022/09/27 05:42:56;;;;;;;8.52;7.93;;;;;;;10.91;100.00;97862.06;10519694;28;20044;-81
2022/09/27 05:47:58;;;;;;;6.93;6.53;;;;;;;11.04;100.00;97867.34;10536356;28;20130;-81
2022/09/27 05:53:01;;;;;;;6.88;6.25;;;;;;;11.05;100.00;97869.88;10534569;28;20130;-82
2022/09/27 05:58:05;;;;;;;6.75;6.32;;;;;;;11.07;100.00;97868.00;10535462;28;20044;-81
2022/09/27 06:03:18;;;;;;;6.60;6.20;;;;;;;11.11;100.00;97866.84;10535020;28;20040;-81
2022/09/27 06:08:39;;;;;;;5.88;5.38;;;;;;;11.33;100.00;97874.09;10553050;28;20048;-81
2022/09/27 06:13:45;;;;;;;5.22;4.75;;;;;;;11.50;96.83;97872.06;10534670;28;20094;-81
2022/09/27 06:18:47;;;;;;;5.53;4.85;;;;;;;11.54;98.19;97881.41;10533731;28;20050;-81
2022/09/27 06:23:50;;;;;;;5.75;5.35;;;;;;;11.44;100.00;97869.88;10516839;28;20418;-80
2022/09/27 06:29:01;;;;;;;5.95;5.55;;;;;;;11.54;97.97;97873.53;10535259;28;20052;-82
2022/09/27 06:34:04;;;;;;;6.07;5.65;;;;;;;11.49;100.00;97868.59;10556483;28;20572;-81
2022/09/27 06:39:06;;;;;;;4.60;4.30;;;;;;;11.60;100.00;97865.22;10558889;28;20048;-80
2022/09/27 06:44:20;;;;;;;4.95;4.45;;;;;;;11.60;100.00;97871.31;10579655;28;20059;-80
2022/09/27 06:49:45;;;;;;;4.93;4.63;;;;;;;11.62;100.00;97861.50;10577025;28;20054;-79
2022/09/27 06:54:49;;;;;;;4.03;3.72;;;;;;;11.72;100.00;97856.44;10560066;28;20036;-79
2022/09/27 07:05:57;;;;;;;2.70;2.33;;;;;;;12.55;93.75;97887.34;10556208;28;20113;-81
2022/09/27 07:11:18;;;;;;;2.72;2.50;;;;;;;12.47;91.72;97885.25;10537903;28;20049;-80
2022/09/27 07:16:20;;;;;;;3.78;1.75;;;;;;;12.50;91.93;97885.06;10536999;28;20048;-79
2022/09/27 07:21:21;;;;;;;1.90;1.80;;;;;;;12.61;87.00;97882.44;10537844;28;20044;-79
2022/09/27 07:26:24;;;;;;;1.58;1.45;;;;;;;12.65;88.92;97883.06;10518446;28;20116;-80
2022/09/27 07:31:25;;;;;;;1.98;1.50;;;;;;;12.84;84.22;97880.75;10552624;28;20036;-80
2022/09/27 07:36:28;;;;;;;2.35;1.90;;;;;;;13.12;84.51;97890.03;10534404;28;20076;-79
2022/09/27 07:41:32;;;;;;;1.73;1.50;;;;;;;13.13;83.37;97893.50;10534557;28;20036;-79
2022/09/27 07:46:34;;;;;;;1.38;1.23;;;;;;;12.96;83.27;97891.31;10568853;23;20044;-82
2022/09/27 07:51:53;;;;;;;3.13;1.67;;;;;;;12.99;83.51;97889.28;10544890;28;20055;-83
2022/09/27 07:57:22;;;;;;;1.60;0.93;;;;;;;13.02;86.23;97893.50;10554910;28;20083;-83
2022/09/27 08:02:26;;;;;;;4.28;0.73;;;;;;;13.09;82.50;97895.53;10533259;28;20150;-82
2022/09/27 08:07:30;;;;;;;7.32;0.80;;;;;;;13.24;78.27;97883.03;10537351;28;20444;-83
2022/09/27 08:12:32;;;;;;;0.40;0.40;;;;;;;13.18;77.38;97893.16;10520859;28;20055;-83
2022/09/27 08:17:34;;;;;;;0.50;0.50;;;;;;;13.26;76.81;97886.38;10520284;28;20052;-83
2022/09/27 08:22:44;;;;;;;1.02;0.40;;;;;;;13.28;76.43;97886.25;11342680;22;20032;-79
2022/09/27 08:28:09;;;;;;;0.50;0.50;;;;;;;13.41;76.41;97894.91;10594336;28;20048;-82
2022/09/27 08:33:52;;;;;;;1.05;0.28;;;;;;;13.37;75.14;97896.94;10566996;28;20051;-81
2022/09/27 08:39:35;;;;;;;0.20;0.20;;;;;;;13.55;74.39;97902.59;10466982;22;20065;-84
2022/09/27 08:44:59;;;;;;;0.25;0.20;;;;;;;13.63;74.62;97901.97;10440142;28;20070;-84
2022/09/27 08:50:36;;;;;;;0.95;0.30;;;;;;;13.77;71.27;97907.06;10368425;28;20129;-85
2022/09/27 08:56:30;;;;;;;;;;;;;;;;;;;;;
2022/09/27 09:03:26;;;;;;;0.20;0.20;;;;;;;13.94;68.18;97910.97;10289150;29;20073;-83
2022/09/27 09:09:50;;;;;;;0.20;0.20;;;;;;;14.00;67.46;97905.22;10292885;29;20051;-84
2022/09/27 09:15:19;;;;;;;0.30;0.20;;;;;;;13.65;71.11;97920.38;10163135;29;20052;-83
2022/09/27 09:20:39;;;;;;;0.20;0.20;;;;;;;13.27;76.90;97914.44;10228476;29;20040;-84
2022/09/27 09:25:59;;;;;;;1.00;0.35;;;;;;;13.12;78.50;97919.06;10236638;29;20051;-84
2022/09/27 09:31:31;;;;;;;0.77;0.20;;;;;;;13.61;76.49;97912.69;10221439;29;20078;-82
2022/09/27 09:36:42;;;;;;;0.55;0.20;;;;;;;13.73;74.91;97917.97;10241791;29;20058;-83
2022/09/27 09:41:52;;;;;;;0.30;0.25;;;;;;;13.71;72.81;97917.22;10237856;28;20181;-83
2022/09/27 09:47:00;;;;;;;0.68;0.30;;;;;;;13.58;72.50;97915.53;10400946;28;20136;-83
2022/09/27 09:52:11;;;;;;;0.43;0.20;;;;;;;13.62;71.36;97914.34;10399955;28;20052;-83
2022/09/27 09:57:36;;;;;;;0.90;0.20;;;;;;;13.58;75.51;97912.91;10418599;28;20042;-83
2022/09/27 10:02:55;;;;;;;1.02;0.30;;;;;;;13.81;70.48;97911.13;10401929;28;20475;-83
2022/09/27 10:08:03;;;;;;;0.10;0.10;;;;;;;13.77;70.73;97904.41;10421331;28;20049;-83
2022/09/27 10:13:22;;;;;;;0.75;0.30;;;;;;;13.66;67.17;97899.13;10415527;28;20046;-84
2022/09/27 10:18:40;;;;;;;0.90;0.20;;;;;;;14.17;67.27;97903.03;10398465;28;20041;-84
2022/09/27 10:24:08;;;;;;;0.20;0.20;;;;;;;13.96;65.73;97922.28;10412732;28;20041;-84
2022/09/27 10:29:58;;;;;;;0.20;0.10;;;;;;;14.08;66.47;97921.31;10413114;28;20049;-83
2022/09/27 10:35:29;;;;;;;1.35;0.20;;;;;;;13.88;67.62;97935.25;10413942;28;20046;-84
2022/09/27 10:41:02;;;;;;;;;;;;;;;;;;;;;
2022/09/27 10:46:28;;;;;;;0.05;0.03;;;;;;;12.04;67.75;97977.06;10416720;28;20045;-85
2022/09/27 10:51:59;;;;;;;0.52;0.20;;;;;;;11.97;71.53;97986.38;10416503;28;20041;-85
2022/09/27 10:57:30;;;;;;;0.40;0.20;;;;;;;12.06;74.23;97972.56;10414640;28;20045;-84
2022/09/27 11:02:41;;;;;;;0.70;0.40;;;;;;;12.39;73.28;97977.19;10416799;28;20037;-83
2022/09/27 11:07:58;;;;;;;1.17;0.40;;;;;;;12.71;72.03;97981.97;10428847;28;20053;-84
2022/09/27 11:13:31;;;;;;;0.65;0.20;;;;;;;12.67;69.93;97997.16;10440412;28;20042;-85
2022/09/27 11:18:52;;;;;;;0.10;0.10;;;;;;;12.35;70.79;97999.44;10412570;28;20045;-84
2022/09/27 11:24:10;;;;;;;0.38;0.17;;;;;;;12.30;73.16;97991.03;10404283;28;20056;-84
2022/09/27 11:29:40;;;;;;;0.50;0.47;;;;;;;12.26;72.87;98005.38;10415325;28;20052;-83
2022/09/27 11:35:19;;;;;;;0.40;0.10;;;;;;;12.36;72.51;97998.50;10415542;28;20450;-84
2022/09/27 11:41:12;;;;;;;0.20;0.10;;;;;;;12.22;72.27;98011.81;10394822;28;20042;-84
2022/09/27 11:53:00;;;;;;;0.23;0.23;;;;;;;12.08;79.17;98018.88;10406083;28;20072;-84
2022/09/27 11:58:24;;;;;;;0.43;0.20;;;;;;;12.54;77.30;98006.91;10392876;28;20521;-83
2022/09/27 12:04:04;;;;;;;0.10;0.10;;;;;;;12.69;73.18;98015.47;10406969;28;20048;-84
2022/09/27 12:09:13;;;;;;;0.70;0.10;;;;;;;12.65;72.38;98021.91;10407020;28;20045;-83
2022/09/27 12:21:08;;;;;;;1.15;0.25;;;;;;;12.57;77.15;98027.72;10365640;28;20116;-84
2022/09/27 12:26:43;;;;;;;0.32;0.20;;;;;;;12.62;75.12;98029.13;10411105;28;20065;-84
2022/09/27 12:31:53;;;;;;;0.45;0.20;;;;;;;12.65;76.92;98025.41;10419631;28;20045;-84
2022/09/27 12:37:07;;;;;;;0.47;0.10;;;;;;;13.17;76.09;98024.22;10406191;28;20056;-84
2022/09/27 12:42:20;;;;;;;0.15;0.10;;;;;;;13.65;71.87;98015.41;10405142;28;20132;-84
2022/09/27 12:47:33;;;;;;;0.13;0.10;;;;;;;13.54;69.92;98019.69;10422160;28;20053;-84
2022/09/27 12:52:42;;;;;;;1.30;0.10;;;;;;;13.19;69.76;98021.47;10426791;28;20056;-84
2022/09/27 12:58:08;;;;;;;0.82;0.20;;;;;;;12.75;71.27;98017.66;10428522;28;20107;-83
2022/09/27 13:03:29;;;;;;;0.85;0.10;;;;;;;13.10;70.78;98034.41;10422939;28;20045;-84
2022/09/27 13:09:05;;;;;;;0.13;0.13;;;;;;;12.52;71.29;98024.59;10414662;28;20049;-84
2022/09/27 13:14:20;;;;;;;0.10;0.10;;;;;;;12.54;69.52;98030.63;10418578;28;20132;-84
2022/09/27 13:19:43;;;;;;;0.17;0.17;;;;;;;12.60;69.99;98035.44;10414084;28;20065;-84
2022/09/27 13:24:50;;;;;;;0.20;0.20;;;;;;;12.87;72.46;98035.22;10421311;28;20068;-83
2022/09/27 13:30:34;;;;;;;0.80;0.45;;;;;;;13.43;67.66;98029.38;10403220;28;20104;-82
2022/09/27 13:35:36;;;;;;;0.20;0.20;;;;;;;13.63;67.10;98040.13;10444343;23;20136;-70
2022/09/27 13:40:43;;;;;;;0.40;0.20;;;;;;;13.37;66.35;98050.00;10527382;28;20058;-69
2022/09/27 13:46:04;;;;;;;1.27;0.30;;;;;;;13.59;64.85;98045.72;10527021;28;20444;-68
2022/09/27 13:51:34;;;;;;;1.00;0.30;;;;;;;13.54;63.63;98054.00;10527074;28;20040;-68
2022/09/27 13:56:35;;;;;;;0.75;0.20;;;;;;;13.56;66.31;98059.19;10526602;28;20098;-69
2022/09/27 14:01:50;;;;;;;0.17;0.10;;;;;;;13.29;64.25;98067.38;10526004;28;20456;-69
2022/09/27 14:06:58;;;;;;;0.65;0.30;;;;;;;13.20;64.96;98062.75;10543148;28;20059;-68
2022/09/27 14:12:09;;;;;;;1.45;0.20;;;;;;;13.26;65.17;98075.50;10525827;28;20047;-68
2022/09/27 14:17:11;;;;;;;0.65;0.20;;;;;;;13.18;65.21;98077.81;10509487;28;20055;-68
2022/09/27 14:22:17;;;;;;;1.98;0.40;;;;;;;12.99;66.32;98075.69;10525325;28;20048;-68
2022/09/27 14:27:37;;;;;;;0.90;0.32;;;;;;;13.07;66.88;98079.47;10524985;28;20075;-68
2022/09/27 14:33:27;;;;;;;0.57;0.28;;;;;;;12.87;68.28;98102.00;10521835;28;20036;-69
2022/09/27 14:38:31;;;;;;;0.40;0.40;;;;;;;12.72;69.57;98107.53;10535157;22;20517;-73
2022/09/27 14:43:49;;;;;;;0.70;0.30;;;;;;;12.56;72.08;98115.66;10520264;28;20060;-73
2022/09/27 14:48:52;;;;;;;1.10;0.20;;;;;;;12.53;68.23;98116.75;10523209;28;20064;-71
2022/09/27 14:53:57;;;;;;;0.57;0.30;;;;;;;12.55;66.20;98117.47;10502634;28;20033;-72
2022/09/27 14:59:02;;;;;;;0.45;0.30;;;;;;;12.46;65.87;98123.38;10520470;28;20048;-73
2022/09/27 15:04:07;;;;;;;0.73;0.50;;;;;;;12.36;67.79;98114.44;10543145;28;20044;-72
2022/09/27 15:09:12;;;;;;;4.53;4.15;;;;;;;12.31;66.88;98121.81;10544808;28;20051;-73
2022/09/27 15:14:18;;;;;;;8.38;7.72;;;;;;;12.11;68.57;98126.66;10505715;28;20049;-73
2022/09/27 15:19:26;;;;;;;1.20;0.45;;;;;;;12.08;68.34;98129.50;10504590;28;20051;-73
2022/09/27 15:24:46;;;;;;;1.88;1.67;;;;;;;12.03;69.73;98125.50;10503632;28;20446;-74
2022/09/27 15:29:50;;;;;;;3.25;2.95;;;;;;;12.02;68.53;98127.28;10501144;28;20045;-73
2022/09/27 15:34:53;;;;;;;2.33;1.80;;;;;;;11.95;69.52;98119.91;10501320;28;20032;-72
2022/09/27 15:40:07;;;;;;;0.40;0.40;;;;;;;11.89;69.14;98129.06;10482487;28;20049;-73
2022/09/27 15:45:37;;;;;;;1.45;0.47;;;;;;;11.84;68.52;98132.00;10483109;28;20456;-72
2022/09/27 15:50:40;;;;;;;0.80;0.55;;;;;;;11.75;68.75;98132.59;10505668;28;20110;-73
2022/09/27 15:55:43;;;;;;;1.65;0.63;;;;;;;11.91;66.21;98150.00;10541939;28;20048;-72
2022/09/27 16:01:01;;;;;;;1.02;0.75;;;;;;;11.70;67.97;98150.47;10525235;28;20044;-73
2022/09/27 16:06:03;;;;;;;1.10;0.65;;;;;;;11.72;66.91;98145.09;10529326;28;20086;-71
2022/09/27 16:11:05;;;;;;;1.35;0.73;;;;;;;11.61;66.81;98165.09;10500751;28;20044;-73
2022/09/27 16:16:13;;;;;;;1.23;0.70;;;;;;;11.56;67.87;98175.06;10501807;28;20044;-72
2022/09/27 16:21:15;;;;;;;1.05;0.50;;;;;;;11.50;67.29;98178.09;10503013;28;20048;-74
2022/09/27 16:26:18;;;;;;;0.52;0.50;;;;;;;11.32;66.39;98184.53;10503711;28;20056;-73
2022/09/27 16:31:20;;;;;;;0.75;0.43;;;;;;;11.06;67.00;98184.41;10501695;28;20043;-74
2022/09/27 16:36:22;;;;;;;0.85;0.50;;;;;;;10.88;71.03;98190.00;10500852;28;20040;-72
2022/09/27 16:41:23;;;;;;;3.47;0.98;;;;;;;10.59;76.07;98188.22;10500770;28;20049;-73
2022/09/27 16:46:26;;;;;;;0.52;0.50;;;;;;;10.51;78.04;98187.84;10501114;28;20386;-74
2022/09/27 16:56:48;;;;;;;1.10;1.00;;;;;;;10.14;83.87;98191.81;10501885;28;20040;-74
2022/09/27 17:01:56;;;;;;;1.52;1.00;;;;;;;10.04;85.81;98195.91;10506983;28;20156;-74
2022/09/27 17:06:58;;;;;;;1.25;0.70;;;;;;;10.02;85.94;98203.03;10507606;28;20059;-74
2022/09/27 17:11:59;;;;;;;1.48;0.90;;;;;;;9.99;86.09;98196.19;10507233;28;20048;-73
2022/09/27 17:17:01;;;;;;;1.77;1.00;;;;;;;9.77;88.09;98193.97;10507582;28;20044;-74
2022/09/27 17:22:03;;;;;;;1.10;0.82;;;;;;;9.88;85.70;98198.59;10506836;28;20478;-72
2022/09/27 17:27:04;;;;;;;2.15;0.88;;;;;;;9.78;87.71;98197.41;10507296;28;20052;-73
2022/09/27 17:32:07;;;;;;;1.33;0.75;;;;;;;9.63;88.79;98209.66;10506052;28;20079;-74
2022/09/27 17:37:09;;;;;;;2.33;0.85;;;;;;;9.56;88.88;98213.53;10506280;28;20052;-73
2022/09/27 17:42:11;;;;;;;1.30;0.80;;;;;;;9.58;88.74;98214.31;10507496;28;20049;-73
2022/09/27 17:52:33;;;;;;;1.25;1.10;;;;;;;9.50;89.09;98206.88;10506268;28;20041;-73
2022/09/27 17:57:35;;;;;;;0.90;0.90;;;;;;;9.51;88.00;98216.44;10506933;28;20051;-73
2022/09/27 18:02:37;;;;;;;21.90;20.60;;;;;;;9.60;87.77;98222.94;10505966;28;20078;-73
2022/09/27 18:07:39;;;;;;;2.10;1.17;;;;;;;9.58;86.80;98219.56;10505620;28;20494;-73
2022/09/27 18:12:42;;;;;;;1.48;0.90;;;;;;;9.66;87.13;98212.09;10487301;28;20044;-73
2022/09/27 18:17:44;;;;;;;1.02;0.93;;;;;;;9.60;87.09;98229.03;10505026;28;20048;-74
2022/09/27 18:22:46;;;;;;;1.58;1.30;;;;;;;9.77;86.08;98229.84;10505627;28;20374;-74
2022/09/27 18:27:50;;;;;;;2.30;1.50;;;;;;;9.70;86.69;98237.25;10504675;28;20440;-74
2022/09/27 18:32:51;;;;;;;1.48;1.10;;;;;;;9.62;86.04;98242.06;10503310;28;20044;-75
2022/09/27 18:37:53;;;;;;;1.52;0.98;;;;;;;9.68;83.95;98233.84;10504159;28;20063;-75
2022/09/27 18:42:55;;;;;;;1.58;1.25;;;;;;;9.69;84.62;98224.19;10485919;28;20048;-73
2022/09/27 18:47:56;;;;;;;1.63;1.00;;;;;;;9.63;83.08;98230.63;10503073;28;20052;-74
2022/09/27 18:52:58;;;;;;;0.90;0.60;;;;;;;9.55;84.29;98228.44;10502845;28;20045;-74
2022/09/27 18:57:59;;;;;;;0.80;0.52;;;;;;;9.57;84.04;98217.88;10502638;28;20037;-74
2022/09/27 19:03:01;;;;;;;2.10;0.55;;;;;;;9.57;83.80;98217.88;10502430;28;20448;-73
2022/09/27 19:08:03;;;;;;;1.15;0.70;;;;;;;9.49;84.18;98218.31;10502697;28;20067;-74
2022/09/27 19:13:05;;;;;;;0.82;0.77;;;;;;;9.58;83.76;98219.56;10501923;28;20398;-74
2022/09/27 19:18:06;;;;;;;1.50;0.60;;;;;;;9.50;84.43;98227.00;10501207;28;20102;-74
2022/09/27 19:23:08;;;;;;;1.65;0.70;;;;;;;9.48;83.27;98224.50;10501484;28;20044;-74
2022/09/27 19:28:13;;;;;;;2.25;0.70;;;;;;;9.53;80.36;98232.09;10501227;28;20052;-73
2022/09/27 19:33:14;;;;;;;1.23;0.90;;;;;;;9.53;79.46;98225.06;10501434;28;20036;-73
2022/09/27 19:38:18;;;;;;;1.05;0.50;;;;;;;9.53;77.53;98226.84;10500790;28;20399;-74
2022/09/27 19:43:20;;;;;;;0.77;0.52;;;;;;;9.48;77.29;98234.97;10501983;28;20036;-73
2022/09/27 19:48:22;;;;;;;0.93;0.47;;;;;;;9.41;78.13;98235.41;10499639;28;20452;-73
2022/09/27 19:53:24;;;;;;;0.90;0.57;;;;;;;9.34;78.51;98221.75;10481320;28;20490;-73
2022/09/27 19:58:34;;;;;;;1.77;0.50;;;;;;;9.26;79.81;98224.00;10499022;28;20040;-73
2022/09/27 20:03:38;;;;;;;0.73;0.47;;;;;;;9.10;81.19;98222.19;10499714;28;20036;-73
2022/09/27 20:08:41;;;;;;;1.52;0.50;;;;;;;9.25;81.07;98222.28;10481566;28;20481;-74
2022/09/27 20:13:43;;;;;;;1.27;0.60;;;;;;;9.26;82.75;98222.22;10499710;28;20406;-74
2022/09/27 20:18:48;;;;;;;0.60;0.60;;;;;;;9.27;85.00;98230.91;10500414;28;20083;-75
2022/09/27 20:23:52;;;;;;;0.70;0.60;;;;;;;9.28;84.52;98222.97;10480881;28;20494;-75
2022/09/27 20:28:56;;;;;;;0.60;0.40;;;;;;;9.27;85.50;98223.91;10499454;28;20481;-73
2022/09/27 20:33:59;;;;;;;0.80;0.68;;;;;;;9.13;85.12;98222.97;10484331;28;20040;-73
2022/09/27 20:39:03;;;;;;;0.65;0.50;;;;;;;9.01;85.70;98221.84;10489678;28;20048;-72
2022/09/27 20:44:10;;;;;;;0.88;0.60;;;;;;;8.90;86.02;98230.31;10506465;28;20033;-72
2022/09/27 20:49:17;;;;;;;0.82;0.63;;;;;;;8.75;87.22;98221.47;10505651;28;20124;-71
2022/09/27 20:54:19;;;;;;;1.48;0.63;;;;;;;8.69;87.11;98219.19;10488734;28;20040;-72
2022/09/27 20:59:21;;;;;;;1.35;0.80;;;;;;;8.53;87.91;98223.53;10506317;28;20127;-72
2022/09/27 21:04:23;;;;;;;0.70;0.57;;;;;;;8.44;87.98;98218.78;10505539;28;20044;-72
2022/09/27 21:09:25;;;;;;;0.80;0.47;;;;;;;8.37;88.04;98223.50;10505296;28;20044;-71
2022/09/27 21:14:27;;;;;;;0.70;0.60;;;;;;;8.29;89.31;98230.88;10505673;28;20041;-71
2022/09/27 21:19:28;;;;;;;1.40;0.60;;;;;;;8.22;89.37;98232.94;10505556;28;20053;-71
2022/09/27 21:24:30;;;;;;;0.70;0.68;;;;;;;8.07;90.74;98231.94;10505569;28;20033;-72
2022/09/27 21:29:31;;;;;;;0.77;0.60;;;;;;;7.92;91.85;98237.09;10506357;28;20055;-72
2022/09/27 21:34:33;;;;;;;1.25;0.70;;;;;;;7.84;92.60;98234.88;10504655;28;20449;-72
2022/09/27 21:39:34;;;;;;;1.63;0.88;;;;;;;7.83;92.57;98235.78;10504787;28;20044;-72
2022/09/27 21:44:36;;;;;;;0.80;0.75;;;;;;;7.82;92.57;98234.94;10504546;28;20090;-71
2022/09/27 21:49:37;;;;;;;1.00;0.70;;;;;;;7.94;91.77;98237.88;10486074;28;20052;-71
2022/09/27 21:54:39;;;;;;;1.88;0.85;;;;;;;7.83;92.57;98243.63;10504238;28;20115;-72
2022/09/27 21:59:40;;;;;;;1.30;0.80;;;;;;;7.84;92.55;98245.34;10507051;28;20415;-72
2022/09/27 22:04:42;;;;;;;0.63;0.63;;;;;;;8.00;91.41;98241.03;10504053;28;20041;-72
2022/09/27 22:09:44;;;;;;;2.58;0.80;;;;;;;8.02;91.26;98241.81;10506177;28;20063;-71
2022/09/27 22:14:46;;;;;;;1.70;0.60;;;;;;;8.01;91.97;98244.47;10504341;28;20044;-72
2022/09/27 22:19:48;;;;;;;5.47;0.90;;;;;;;8.05;91.17;98246.03;10485883;28;20048;-72
2022/09/27 22:24:49;;;;;;;1.20;0.80;;;;;;;7.89;93.19;98230.25;10504034;28;20044;-72
2022/09/27 22:29:51;;;;;;;0.85;0.70;;;;;;;8.02;92.70;98241.81;10503747;28;20076;-73
2022/09/27 22:34:52;;;;;;;1.58;0.80;;;;;;;8.00;92.89;98233.16;10503738;28;20037;-71
2022/09/27 22:39:55;;;;;;;1.13;0.75;;;;;;;8.10;92.21;98238.78;10502625;28;20418;-71
2022/09/27 22:44:56;;;;;;;1.77;0.70;;;;;;;8.00;92.98;98237.56;10483957;28;20037;-71
2022/09/27 22:49:58;;;;;;;1.27;0.73;;;;;;;8.04;92.03;98232.09;10501964;28;20094;-71
2022/09/27 22:54:59;;;;;;;1.08;0.50;;;;;;;8.09;91.68;98237.94;10502300;28;20041;-72
2022/09/27 23:00:01;;;;;;;0.95;0.60;;;;;;;8.22;90.80;98225.09;10501328;28;20409;-72
2022/09/27 23:05:03;;;;;;;0.90;0.65;;;;;;;8.14;90.78;98223.78;10500859;28;20048;-73
2022/09/27 23:10:05;;;;;;;2.10;0.70;;;;;;;7.95;92.57;98221.25;10501923;28;20083;-71
2022/09/27 23:15:08;;;;;;;1.65;0.68;;;;;;;7.90;93.25;98221.47;10500631;28;20052;-73
2022/09/27 23:20:09;;;;;;;0.60;0.60;;;;;;;7.81;93.91;98225.41;10501725;28;20052;-71
2022/09/27 23:25:11;;;;;;;1.23;0.60;;;;;;;7.88;93.03;98225.97;10501160;28;20494;-73
2022/09/27 23:30:20;;;;;;;0.68;0.63;;;;;;;8.11;90.65;98239.66;10500538;28;20040;-71
2022/09/27 23:35:22;;;;;;;1.15;0.60;;;;;;;7.88;92.85;98235.56;10482360;28;20055;-72
2022/09/27 23:40:24;;;;;;;1.35;0.70;;;;;;;7.78;93.84;98230.78;10500563;28;20041;-72
2022/09/27 23:45:26;;;;;;;0.77;0.60;;;;;;;7.74;94.95;98236.22;10499975;28;20448;-71
2022/09/27 23:50:28;;;;;;;0.65;0.65;;;;;;;7.82;94.77;98224.47;10482173;28;20052;-72
2022/09/27 23:55:29;;;;;;;1.17;0.85;;;;;;;7.91;92.85;98223.16;10482462;28;20519;-71
